sensor_id;sensor_type;location;lat;lon;timestamp;temperature;humidity
827;DHT22;395;48.132;11.608;2023-06-22T00:01:49;22.50;4.30
827;DHT22;395;48.132;11.608;2023-06-22T00:04:15;22.60;4.40
827;DHT22;395;48.132;11.608;2023-06-22T00:06:40;22.40;4.20
827;DHT22;395;48.132;11.608;2023-06-22T00:09:06;22.40;5.10
827;DHT22;395;48.132;11.608;2023-06-22T00:11:33;22.40;4.30
827;DHT22;395;48.132;11.608;2023-06-22T00:13:59;22.40;5.00
827;DHT22;395;48.132;11.608;2023-06-22T00:16:25;22.40;4.30
827;DHT22;395;48.132;11.608;2023-06-22T00:18:51;22.30;5.60
827;DHT22;395;48.132;11.608;2023-06-22T00:21:16;22.30;4.90
827;DHT22;395;48.132;11.608;2023-06-22T00:23:42;22.30;4.30
827;DHT22;395;48.132;11.608;2023-06-22T00:26:08;22.30;4.40
827;DHT22;395;48.132;11.608;2023-06-22T00:28:34;22.20;5.30
827;DHT22;395;48.132;11.608;2023-06-22T00:31:00;22.20;4.90
827;DHT22;395;48.132;11.608;2023-06-22T00:33:26;22.20;4.70
827;DHT22;395;48.132;11.608;2023-06-22T00:35:53;22.20;4.30
827;DHT22;395;48.132;11.608;2023-06-22T00:38:19;22.10;4.20
827;DHT22;395;48.132;11.608;2023-06-22T00:40:45;22.10;4.10
827;DHT22;395;48.132;11.608;2023-06-22T00:43:11;22.10;4.20
827;DHT22;395;48.132;11.608;2023-06-22T00:45:37;22.10;4.20
827;DHT22;395;48.132;11.608;2023-06-22T00:48:03;22.10;4.20
827;DHT22;395;48.132;11.608;2023-06-22T00:50:31;22.10;4.80
827;DHT22;395;48.132;11.608;2023-06-22T00:53:08;22.10;5.30
827;DHT22;395;48.132;11.608;2023-06-22T00:55:36;22.10;4.20
827;DHT22;395;48.132;11.608;2023-06-22T00:58:07;22.10;4.40
827;DHT22;395;48.132;11.608;2023-06-22T01:00:35;22.10;4.10
827;DHT22;395;48.132;11.608;2023-06-22T01:03:02;22.00;5.10
827;DHT22;395;48.132;11.608;2023-06-22T01:05:27;22.00;4.90
827;DHT22;395;48.132;11.608;2023-06-22T01:10:38;21.90;5.10
827;DHT22;395;48.132;11.608;2023-06-22T01:13:11;21.90;5.50
827;DHT22;395;48.132;11.608;2023-06-22T01:15:48;21.90;5.20
827;DHT22;395;48.132;11.608;2023-06-22T01:18:16;21.90;5.80
827;DHT22;395;48.132;11.608;2023-06-22T01:20:42;21.80;5.40
827;DHT22;395;48.132;11.608;2023-06-22T01:29:04;21.80;5.90
827;DHT22;395;48.132;11.608;2023-06-22T01:31:33;21.80;6.00
827;DHT22;395;48.132;11.608;2023-06-22T01:34:03;21.70;5.90
827;DHT22;395;48.132;11.608;2023-06-22T01:36:30;21.70;6.20
827;DHT22;395;48.132;11.608;2023-06-22T01:38:57;21.60;6.30
827;DHT22;395;48.132;11.608;2023-06-22T01:41:26;21.60;6.50
827;DHT22;395;48.132;11.608;2023-06-22T01:43:53;21.60;6.80
827;DHT22;395;48.132;11.608;2023-06-22T01:46:20;21.60;7.60
827;DHT22;395;48.132;11.608;2023-06-22T01:48:46;21.60;7.30
827;DHT22;395;48.132;11.608;2023-06-22T01:51:13;21.60;7.30
827;DHT22;395;48.132;11.608;2023-06-22T01:53:39;21.60;7.00
827;DHT22;395;48.132;11.608;2023-06-22T01:56:04;21.60;7.30
827;DHT22;395;48.132;11.608;2023-06-22T01:58:31;21.50;7.60
827;DHT22;395;48.132;11.608;2023-06-22T02:01:10;21.50;8.00
827;DHT22;395;48.132;11.608;2023-06-22T02:03:50;21.50;8.20
827;DHT22;395;48.132;11.608;2023-06-22T02:06:25;21.50;7.40
827;DHT22;395;48.132;11.608;2023-06-22T02:08:57;21.40;7.70
827;DHT22;395;48.132;11.608;2023-06-22T02:11:26;21.40;7.90
827;DHT22;395;48.132;11.608;2023-06-22T02:13:56;21.40;7.50
827;DHT22;395;48.132;11.608;2023-06-22T02:16:23;21.40;9.40
827;DHT22;395;48.132;11.608;2023-06-22T02:18:50;21.40;8.30
827;DHT22;395;48.132;11.608;2023-06-22T02:21:19;21.40;8.60
827;DHT22;395;48.132;11.608;2023-06-22T02:23:45;21.40;8.70
827;DHT22;395;48.132;11.608;2023-06-22T02:26:11;21.30;8.50
827;DHT22;395;48.132;11.608;2023-06-22T02:28:37;21.30;9.10
827;DHT22;395;48.132;11.608;2023-06-22T02:31:02;21.20;9.80
827;DHT22;395;48.132;11.608;2023-06-22T02:33:28;21.20;9.90
827;DHT22;395;48.132;11.608;2023-06-22T02:35:54;21.30;9.80
827;DHT22;395;48.132;11.608;2023-06-22T02:38:19;21.30;9.40
827;DHT22;395;48.132;11.608;2023-06-22T02:40:46;21.30;9.40
827;DHT22;395;48.132;11.608;2023-06-22T02:43:11;21.30;9.00
827;DHT22;395;48.132;11.608;2023-06-22T02:45:37;21.30;8.90
827;DHT22;395;48.132;11.608;2023-06-22T02:48:03;21.20;9.40
827;DHT22;395;48.132;11.608;2023-06-22T02:50:29;21.20;10.20
827;DHT22;395;48.132;11.608;2023-06-22T02:52:54;21.20;10.30
827;DHT22;395;48.132;11.608;2023-06-22T02:55:20;21.10;9.60
827;DHT22;395;48.132;11.608;2023-06-22T02:57:46;21.10;9.60
827;DHT22;395;48.132;11.608;2023-06-22T03:00:13;21.10;10.40
827;DHT22;395;48.132;11.608;2023-06-22T03:02:44;21.00;10.20
827;DHT22;395;48.132;11.608;2023-06-22T03:05:10;21.00;10.80
827;DHT22;395;48.132;11.608;2023-06-22T03:07:40;21.00;10.30
827;DHT22;395;48.132;11.608;2023-06-22T03:10:06;21.00;10.70
827;DHT22;395;48.132;11.608;2023-06-22T03:12:32;21.00;10.30
827;DHT22;395;48.132;11.608;2023-06-22T03:14:58;21.00;10.60
827;DHT22;395;48.132;11.608;2023-06-22T03:17:24;21.00;10.80
827;DHT22;395;48.132;11.608;2023-06-22T03:19:50;21.00;11.00
827;DHT22;395;48.132;11.608;2023-06-22T03:22:15;21.00;10.50
827;DHT22;395;48.132;11.608;2023-06-22T03:24:41;21.00;11.10
827;DHT22;395;48.132;11.608;2023-06-22T03:27:07;21.00;11.00
827;DHT22;395;48.132;11.608;2023-06-22T03:29:32;21.10;10.30
827;DHT22;395;48.132;11.608;2023-06-22T03:31:58;21.00;10.20
827;DHT22;395;48.132;11.608;2023-06-22T03:34:23;21.00;10.00
827;DHT22;395;48.132;11.608;2023-06-22T03:36:49;20.90;10.90
827;DHT22;395;48.132;11.608;2023-06-22T03:39:15;20.80;10.90
827;DHT22;395;48.132;11.608;2023-06-22T03:41:40;20.80;10.90
827;DHT22;395;48.132;11.608;2023-06-22T03:44:06;20.80;11.60
827;DHT22;395;48.132;11.608;2023-06-22T03:46:32;20.80;11.10
827;DHT22;395;48.132;11.608;2023-06-22T03:48:57;20.80;11.00
827;DHT22;395;48.132;11.608;2023-06-22T03:51:23;20.70;11.60
827;DHT22;395;48.132;11.608;2023-06-22T03:53:49;20.80;11.70
827;DHT22;395;48.132;11.608;2023-06-22T03:56:14;20.80;10.90
827;DHT22;395;48.132;11.608;2023-06-22T03:58:45;20.80;11.50
827;DHT22;395;48.132;11.608;2023-06-22T04:01:11;20.80;11.50
827;DHT22;395;48.132;11.608;2023-06-22T04:03:37;20.80;11.30
827;DHT22;395;48.132;11.608;2023-06-22T04:06:03;20.90;12.00
827;DHT22;395;48.132;11.608;2023-06-22T04:08:29;20.90;11.60
827;DHT22;395;48.132;11.608;2023-06-22T04:10:54;20.90;11.20
827;DHT22;395;48.132;11.608;2023-06-22T04:13:20;21.00;11.10
827;DHT22;395;48.132;11.608;2023-06-22T04:15:46;21.00;11.10
827;DHT22;395;48.132;11.608;2023-06-22T04:18:11;21.00;10.90
827;DHT22;395;48.132;11.608;2023-06-22T04:20:39;21.10;10.60
827;DHT22;395;48.132;11.608;2023-06-22T04:23:04;21.10;10.70
827;DHT22;395;48.132;11.608;2023-06-22T04:25:30;21.10;11.10
827;DHT22;395;48.132;11.608;2023-06-22T04:27:55;21.10;10.80
827;DHT22;395;48.132;11.608;2023-06-22T04:30:21;21.20;11.00
827;DHT22;395;48.132;11.608;2023-06-22T04:32:47;21.20;11.00
827;DHT22;395;48.132;11.608;2023-06-22T04:35:24;21.20;11.20
827;DHT22;395;48.132;11.608;2023-06-22T04:37:50;21.20;11.20
827;DHT22;395;48.132;11.608;2023-06-22T04:40:15;21.20;11.20
827;DHT22;395;48.132;11.608;2023-06-22T04:42:41;21.30;10.90
827;DHT22;395;48.132;11.608;2023-06-22T04:45:17;21.30;10.60
827;DHT22;395;48.132;11.608;2023-06-22T04:47:43;21.30;11.30
827;DHT22;395;48.132;11.608;2023-06-22T04:50:11;21.30;11.30
827;DHT22;395;48.132;11.608;2023-06-22T04:52:37;21.40;11.60
827;DHT22;395;48.132;11.608;2023-06-22T04:55:03;21.40;11.30
827;DHT22;395;48.132;11.608;2023-06-22T04:57:29;21.40;11.30
827;DHT22;395;48.132;11.608;2023-06-22T05:00:01;21.40;11.30
827;DHT22;395;48.132;11.608;2023-06-22T05:02:41;21.40;11.30
827;DHT22;395;48.132;11.608;2023-06-22T05:05:07;21.40;11.10
827;DHT22;395;48.132;11.608;2023-06-22T05:07:34;21.50;12.20
827;DHT22;395;48.132;11.608;2023-06-22T05:10:03;21.50;11.80
827;DHT22;395;48.132;11.608;2023-06-22T05:12:30;21.60;11.50
827;DHT22;395;48.132;11.608;2023-06-22T05:14:56;21.70;10.50
827;DHT22;395;48.132;11.608;2023-06-22T05:17:22;21.80;11.60
827;DHT22;395;48.132;11.608;2023-06-22T05:19:48;21.80;11.50
827;DHT22;395;48.132;11.608;2023-06-22T05:22:16;21.90;11.40
827;DHT22;395;48.132;11.608;2023-06-22T05:24:43;21.90;10.20
827;DHT22;395;48.132;11.608;2023-06-22T05:27:09;22.00;10.80
827;DHT22;395;48.132;11.608;2023-06-22T05:29:36;22.00;10.40
827;DHT22;395;48.132;11.608;2023-06-22T05:32:01;22.10;10.70
827;DHT22;395;48.132;11.608;2023-06-22T05:34:27;22.10;10.00
827;DHT22;395;48.132;11.608;2023-06-22T05:36:53;22.20;9.90
827;DHT22;395;48.132;11.608;2023-06-22T05:39:18;22.30;10.70
827;DHT22;395;48.132;11.608;2023-06-22T05:41:45;22.40;13.60
827;DHT22;395;48.132;11.608;2023-06-22T05:44:11;22.40;10.30
827;DHT22;395;48.132;11.608;2023-06-22T05:46:39;22.50;10.40
827;DHT22;395;48.132;11.608;2023-06-22T05:49:05;22.50;9.00
827;DHT22;395;48.132;11.608;2023-06-22T05:51:31;22.60;8.40
827;DHT22;395;48.132;11.608;2023-06-22T05:53:56;22.60;8.30
827;DHT22;395;48.132;11.608;2023-06-22T05:56:22;22.60;8.70
827;DHT22;395;48.132;11.608;2023-06-22T05:58:47;22.60;8.30
827;DHT22;395;48.132;11.608;2023-06-22T06:01:13;22.60;8.40
827;DHT22;395;48.132;11.608;2023-06-22T06:03:40;22.60;8.30
827;DHT22;395;48.132;11.608;2023-06-22T06:06:09;22.60;10.10
827;DHT22;395;48.132;11.608;2023-06-22T06:08:36;22.70;8.40
827;DHT22;395;48.132;11.608;2023-06-22T06:11:02;22.70;7.40
827;DHT22;395;48.132;11.608;2023-06-22T06:13:28;22.80;7.30
827;DHT22;395;48.132;11.608;2023-06-22T06:15:53;22.90;9.30
827;DHT22;395;48.132;11.608;2023-06-22T06:18:21;23.00;7.80
827;DHT22;395;48.132;11.608;2023-06-22T06:20:46;23.00;8.50
827;DHT22;395;48.132;11.608;2023-06-22T06:23:12;23.10;6.90
827;DHT22;395;48.132;11.608;2023-06-22T06:25:38;23.10;6.70
827;DHT22;395;48.132;11.608;2023-06-22T06:28:04;23.10;6.60
827;DHT22;395;48.132;11.608;2023-06-22T06:30:30;23.20;6.20
827;DHT22;395;48.132;11.608;2023-06-22T06:32:56;23.20;5.80
827;DHT22;395;48.132;11.608;2023-06-22T06:35:22;23.20;6.90
827;DHT22;395;48.132;11.608;2023-06-22T06:37:49;23.30;6.50
827;DHT22;395;48.132;11.608;2023-06-22T06:40:15;23.30;5.70
827;DHT22;395;48.132;11.608;2023-06-22T06:42:43;23.40;5.30
827;DHT22;395;48.132;11.608;2023-06-22T06:45:19;23.50;6.30
827;DHT22;395;48.132;11.608;2023-06-22T06:47:45;23.50;5.10
827;DHT22;395;48.132;11.608;2023-06-22T06:50:12;23.60;5.00
827;DHT22;395;48.132;11.608;2023-06-22T06:52:38;23.60;5.20
827;DHT22;395;48.132;11.608;2023-06-22T06:55:04;23.70;5.20
827;DHT22;395;48.132;11.608;2023-06-22T06:57:30;23.70;4.20
827;DHT22;395;48.132;11.608;2023-06-22T06:59:56;23.70;4.30
827;DHT22;395;48.132;11.608;2023-06-22T07:02:22;23.80;3.80
827;DHT22;395;48.132;11.608;2023-06-22T07:04:49;23.80;3.80
827;DHT22;395;48.132;11.608;2023-06-22T07:07:14;23.90;3.20
827;DHT22;395;48.132;11.608;2023-06-22T07:09:41;24.00;3.50
827;DHT22;395;48.132;11.608;2023-06-22T07:12:07;24.00;3.60
827;DHT22;395;48.132;11.608;2023-06-22T07:14:33;24.00;3.80
827;DHT22;395;48.132;11.608;2023-06-22T07:16:58;24.10;4.70
827;DHT22;395;48.132;11.608;2023-06-22T07:19:25;24.20;3.50
827;DHT22;395;48.132;11.608;2023-06-22T07:21:52;24.20;3.40
827;DHT22;395;48.132;11.608;2023-06-22T07:24:19;24.30;2.10
827;DHT22;395;48.132;11.608;2023-06-22T07:26:46;24.30;1.70
827;DHT22;395;48.132;11.608;2023-06-22T07:29:13;24.30;1.30
827;DHT22;395;48.132;11.608;2023-06-22T07:31:39;24.40;1.00
827;DHT22;395;48.132;11.608;2023-06-22T07:34:06;24.40;1.80
827;DHT22;395;48.132;11.608;2023-06-22T07:36:32;24.50;1.00
827;DHT22;395;48.132;11.608;2023-06-22T07:38:57;24.50;1.00
827;DHT22;395;48.132;11.608;2023-06-22T07:41:23;24.50;1.00
827;DHT22;395;48.132;11.608;2023-06-22T07:43:49;24.60;1.00
827;DHT22;395;48.132;11.608;2023-06-22T07:46:15;24.60;1.00
827;DHT22;395;48.132;11.608;2023-06-22T07:48:42;24.70;1.00
827;DHT22;395;48.132;11.608;2023-06-22T07:51:09;24.70;1.00
827;DHT22;395;48.132;11.608;2023-06-22T07:53:36;24.70;1.00
827;DHT22;395;48.132;11.608;2023-06-22T07:56:02;24.80;1.00
827;DHT22;395;48.132;11.608;2023-06-22T07:58:32;24.80;1.00
827;DHT22;395;48.132;11.608;2023-06-22T08:00:58;24.90;1.00
827;DHT22;395;48.132;11.608;2023-06-22T08:03:24;24.90;1.00
827;DHT22;395;48.132;11.608;2023-06-22T08:05:50;24.90;1.00
827;DHT22;395;48.132;11.608;2023-06-22T08:08:16;25.00;1.00
827;DHT22;395;48.132;11.608;2023-06-22T08:10:42;25.10;1.00
827;DHT22;395;48.132;11.608;2023-06-22T08:13:10;25.10;1.00
827;DHT22;395;48.132;11.608;2023-06-22T08:15:35;25.10;1.00
827;DHT22;395;48.132;11.608;2023-06-22T08:18:01;25.10;1.00
827;DHT22;395;48.132;11.608;2023-06-22T08:20:27;25.20;1.00
827;DHT22;395;48.132;11.608;2023-06-22T08:22:56;25.30;1.00
827;DHT22;395;48.132;11.608;2023-06-22T08:25:23;25.30;1.00
827;DHT22;395;48.132;11.608;2023-06-22T08:27:48;25.50;1.00
827;DHT22;395;48.132;11.608;2023-06-22T08:30:15;25.50;1.00
827;DHT22;395;48.132;11.608;2023-06-22T08:32:41;25.60;1.00
827;DHT22;395;48.132;11.608;2023-06-22T08:35:07;25.70;1.00
827;DHT22;395;48.132;11.608;2023-06-22T08:37:36;25.80;1.00
827;DHT22;395;48.132;11.608;2023-06-22T08:40:06;25.90;1.00
827;DHT22;395;48.132;11.608;2023-06-22T08:42:33;26.00;1.00
827;DHT22;395;48.132;11.608;2023-06-22T08:44:59;26.10;1.00
827;DHT22;395;48.132;11.608;2023-06-22T08:47:25;26.20;1.00
827;DHT22;395;48.132;11.608;2023-06-22T08:49:50;26.20;1.00
827;DHT22;395;48.132;11.608;2023-06-22T08:52:17;26.30;1.00
827;DHT22;395;48.132;11.608;2023-06-22T08:54:44;26.40;1.00
827;DHT22;395;48.132;11.608;2023-06-22T08:57:10;26.50;1.00
827;DHT22;395;48.132;11.608;2023-06-22T08:59:35;26.50;1.00
827;DHT22;395;48.132;11.608;2023-06-22T09:02:01;26.60;1.00
827;DHT22;395;48.132;11.608;2023-06-22T09:04:27;26.70;1.00
827;DHT22;395;48.132;11.608;2023-06-22T09:06:52;26.70;1.00
827;DHT22;395;48.132;11.608;2023-06-22T09:09:18;26.70;1.00
827;DHT22;395;48.132;11.608;2023-06-22T09:11:44;26.70;1.00
827;DHT22;395;48.132;11.608;2023-06-22T09:14:10;26.70;1.00
827;DHT22;395;48.132;11.608;2023-06-22T09:16:36;26.80;1.00
827;DHT22;395;48.132;11.608;2023-06-22T09:19:03;26.80;1.00
827;DHT22;395;48.132;11.608;2023-06-22T09:21:28;26.80;1.00
827;DHT22;395;48.132;11.608;2023-06-22T09:23:54;26.80;1.00
827;DHT22;395;48.132;11.608;2023-06-22T09:26:21;26.80;1.00
827;DHT22;395;48.132;11.608;2023-06-22T09:28:48;26.80;1.00
827;DHT22;395;48.132;11.608;2023-06-22T09:31:13;26.90;1.00
827;DHT22;395;48.132;11.608;2023-06-22T09:33:40;26.90;1.00
827;DHT22;395;48.132;11.608;2023-06-22T09:36:06;26.90;1.00
827;DHT22;395;48.132;11.608;2023-06-22T09:38:35;27.00;1.00
827;DHT22;395;48.132;11.608;2023-06-22T09:41:01;27.00;1.00
827;DHT22;395;48.132;11.608;2023-06-22T09:43:27;27.00;1.00
827;DHT22;395;48.132;11.608;2023-06-22T09:45:53;27.00;1.00
827;DHT22;395;48.132;11.608;2023-06-22T09:48:18;27.10;1.00
827;DHT22;395;48.132;11.608;2023-06-22T09:50:44;27.10;1.00
827;DHT22;395;48.132;11.608;2023-06-22T09:53:10;27.20;1.00
827;DHT22;395;48.132;11.608;2023-06-22T09:55:35;27.30;1.00
827;DHT22;395;48.132;11.608;2023-06-22T09:58:01;27.40;1.00
827;DHT22;395;48.132;11.608;2023-06-22T10:00:27;27.50;1.00
827;DHT22;395;48.132;11.608;2023-06-22T10:02:52;27.60;1.00
827;DHT22;395;48.132;11.608;2023-06-22T10:05:18;27.50;1.00
827;DHT22;395;48.132;11.608;2023-06-22T10:07:44;27.60;1.00
827;DHT22;395;48.132;11.608;2023-06-22T10:10:10;27.60;1.00
827;DHT22;395;48.132;11.608;2023-06-22T10:12:36;27.60;1.00
827;DHT22;395;48.132;11.608;2023-06-22T10:15:03;27.60;1.00
827;DHT22;395;48.132;11.608;2023-06-22T10:17:28;27.70;1.00
827;DHT22;395;48.132;11.608;2023-06-22T10:19:54;27.70;1.00
827;DHT22;395;48.132;11.608;2023-06-22T10:22:20;27.80;1.00
827;DHT22;395;48.132;11.608;2023-06-22T10:24:45;27.90;1.00
827;DHT22;395;48.132;11.608;2023-06-22T10:27:11;27.90;1.00
827;DHT22;395;48.132;11.608;2023-06-22T10:29:37;27.90;1.00
827;DHT22;395;48.132;11.608;2023-06-22T10:32:03;28.00;1.00
827;DHT22;395;48.132;11.608;2023-06-22T10:34:29;28.00;1.00
827;DHT22;395;48.132;11.608;2023-06-22T10:36:55;28.00;1.00
827;DHT22;395;48.132;11.608;2023-06-22T10:39:20;28.00;1.00
827;DHT22;395;48.132;11.608;2023-06-22T10:41:46;28.10;1.00
827;DHT22;395;48.132;11.608;2023-06-22T10:44:12;28.10;1.00
827;DHT22;395;48.132;11.608;2023-06-22T10:46:39;28.20;1.00
827;DHT22;395;48.132;11.608;2023-06-22T10:49:04;28.20;1.00
827;DHT22;395;48.132;11.608;2023-06-22T10:51:30;28.30;1.00
827;DHT22;395;48.132;11.608;2023-06-22T10:53:57;28.40;1.00
827;DHT22;395;48.132;11.608;2023-06-22T10:56:22;28.50;1.00
827;DHT22;395;48.132;11.608;2023-06-22T10:58:48;28.60;1.00
827;DHT22;395;48.132;11.608;2023-06-22T11:01:14;28.80;1.00
827;DHT22;395;48.132;11.608;2023-06-22T11:03:39;29.00;1.00
827;DHT22;395;48.132;11.608;2023-06-22T11:06:05;29.30;1.00
827;DHT22;395;48.132;11.608;2023-06-22T11:08:31;29.50;1.00
827;DHT22;395;48.132;11.608;2023-06-22T11:10:57;29.70;1.00
827;DHT22;395;48.132;11.608;2023-06-22T11:13:22;29.80;1.00
827;DHT22;395;48.132;11.608;2023-06-22T11:15:48;29.80;1.00
827;DHT22;395;48.132;11.608;2023-06-22T11:18:13;29.80;1.00
827;DHT22;395;48.132;11.608;2023-06-22T11:20:39;29.80;1.00
827;DHT22;395;48.132;11.608;2023-06-22T11:23:06;29.90;1.00
827;DHT22;395;48.132;11.608;2023-06-22T11:25:32;30.00;1.00
827;DHT22;395;48.132;11.608;2023-06-22T11:28:03;30.00;1.00
827;DHT22;395;48.132;11.608;2023-06-22T11:30:29;30.00;1.00
827;DHT22;395;48.132;11.608;2023-06-22T11:32:56;30.00;1.00
827;DHT22;395;48.132;11.608;2023-06-22T11:35:23;30.00;1.00
827;DHT22;395;48.132;11.608;2023-06-22T11:37:48;30.00;1.00
827;DHT22;395;48.132;11.608;2023-06-22T11:40:14;30.00;1.00
827;DHT22;395;48.132;11.608;2023-06-22T11:42:40;30.00;1.00
827;DHT22;395;48.132;11.608;2023-06-22T11:45:06;30.00;1.00
827;DHT22;395;48.132;11.608;2023-06-22T11:47:32;30.00;1.00
827;DHT22;395;48.132;11.608;2023-06-22T11:49:58;30.10;1.00
827;DHT22;395;48.132;11.608;2023-06-22T11:52:23;30.10;1.00
827;DHT22;395;48.132;11.608;2023-06-22T11:54:49;30.20;1.00
827;DHT22;395;48.132;11.608;2023-06-22T11:57:15;30.20;1.00
827;DHT22;395;48.132;11.608;2023-06-22T11:59:40;30.20;1.00
827;DHT22;395;48.132;11.608;2023-06-22T12:02:06;30.30;1.00
827;DHT22;395;48.132;11.608;2023-06-22T12:04:32;30.40;1.00
827;DHT22;395;48.132;11.608;2023-06-22T12:06:58;30.50;1.00
827;DHT22;395;48.132;11.608;2023-06-22T12:09:24;30.50;1.00
827;DHT22;395;48.132;11.608;2023-06-22T12:11:49;30.60;1.00
827;DHT22;395;48.132;11.608;2023-06-22T12:14:15;30.70;1.00
827;DHT22;395;48.132;11.608;2023-06-22T12:16:41;30.80;1.00
827;DHT22;395;48.132;11.608;2023-06-22T12:19:07;30.90;1.00
827;DHT22;395;48.132;11.608;2023-06-22T12:21:33;31.00;1.00
827;DHT22;395;48.132;11.608;2023-06-22T12:23:58;31.10;1.00
827;DHT22;395;48.132;11.608;2023-06-22T12:26:24;31.20;1.00
827;DHT22;395;48.132;11.608;2023-06-22T12:28:49;31.40;1.00
827;DHT22;395;48.132;11.608;2023-06-22T12:31:16;31.40;1.00
827;DHT22;395;48.132;11.608;2023-06-22T12:33:42;31.60;1.00
827;DHT22;395;48.132;11.608;2023-06-22T12:36:08;31.70;1.00
827;DHT22;395;48.132;11.608;2023-06-22T12:38:33;31.80;1.00
827;DHT22;395;48.132;11.608;2023-06-22T12:40:59;31.90;1.00
827;DHT22;395;48.132;11.608;2023-06-22T12:43:25;32.00;1.00
827;DHT22;395;48.132;11.608;2023-06-22T12:45:50;31.90;1.00
827;DHT22;395;48.132;11.608;2023-06-22T12:48:16;31.90;1.00
827;DHT22;395;48.132;11.608;2023-06-22T12:50:42;31.90;1.00
827;DHT22;395;48.132;11.608;2023-06-22T12:53:08;31.90;1.00
827;DHT22;395;48.132;11.608;2023-06-22T12:55:33;31.90;1.00
827;DHT22;395;48.132;11.608;2023-06-22T12:57:59;31.90;1.00
827;DHT22;395;48.132;11.608;2023-06-22T13:00:25;32.00;1.00
827;DHT22;395;48.132;11.608;2023-06-22T13:02:50;32.00;1.00
827;DHT22;395;48.132;11.608;2023-06-22T13:05:16;31.90;1.00
827;DHT22;395;48.132;11.608;2023-06-22T13:07:41;32.00;1.00
827;DHT22;395;48.132;11.608;2023-06-22T13:10:08;32.10;1.00
827;DHT22;395;48.132;11.608;2023-06-22T13:12:34;32.30;1.00
827;DHT22;395;48.132;11.608;2023-06-22T13:14:59;32.50;1.00
827;DHT22;395;48.132;11.608;2023-06-22T13:17:25;32.50;1.00
827;DHT22;395;48.132;11.608;2023-06-22T13:19:50;32.50;1.00
827;DHT22;395;48.132;11.608;2023-06-22T13:22:33;32.60;1.00
827;DHT22;395;48.132;11.608;2023-06-22T13:25:00;32.60;1.00
827;DHT22;395;48.132;11.608;2023-06-22T13:27:26;32.70;1.00
827;DHT22;395;48.132;11.608;2023-06-22T13:29:52;32.70;1.00
827;DHT22;395;48.132;11.608;2023-06-22T13:32:17;32.60;1.00
827;DHT22;395;48.132;11.608;2023-06-22T13:34:43;32.70;1.00
827;DHT22;395;48.132;11.608;2023-06-22T13:37:09;32.80;1.00
827;DHT22;395;48.132;11.608;2023-06-22T13:39:34;32.80;1.00
827;DHT22;395;48.132;11.608;2023-06-22T13:42:00;32.70;1.00
827;DHT22;395;48.132;11.608;2023-06-22T13:44:26;32.70;1.00
827;DHT22;395;48.132;11.608;2023-06-22T13:46:54;32.70;1.00
827;DHT22;395;48.132;11.608;2023-06-22T13:49:20;32.70;1.00
827;DHT22;395;48.132;11.608;2023-06-22T13:51:47;32.60;1.00
827;DHT22;395;48.132;11.608;2023-06-22T13:54:14;32.60;1.00
827;DHT22;395;48.132;11.608;2023-06-22T13:56:39;32.60;1.00
827;DHT22;395;48.132;11.608;2023-06-22T13:59:05;32.60;1.00
827;DHT22;395;48.132;11.608;2023-06-22T14:01:34;32.70;1.00
827;DHT22;395;48.132;11.608;2023-06-22T14:04:00;32.70;1.00
827;DHT22;395;48.132;11.608;2023-06-22T14:06:27;32.80;1.00
827;DHT22;395;48.132;11.608;2023-06-22T14:08:53;32.80;1.00
827;DHT22;395;48.132;11.608;2023-06-22T14:11:19;32.90;1.00
827;DHT22;395;48.132;11.608;2023-06-22T14:13:44;32.90;1.00
827;DHT22;395;48.132;11.608;2023-06-22T14:16:10;33.00;1.00
827;DHT22;395;48.132;11.608;2023-06-22T14:18:36;33.10;1.00
827;DHT22;395;48.132;11.608;2023-06-22T14:21:02;33.10;1.00
827;DHT22;395;48.132;11.608;2023-06-22T14:23:28;33.00;1.00
827;DHT22;395;48.132;11.608;2023-06-22T14:25:54;32.90;1.00
827;DHT22;395;48.132;11.608;2023-06-22T14:28:19;33.00;1.00
827;DHT22;395;48.132;11.608;2023-06-22T14:30:45;33.00;1.00
827;DHT22;395;48.132;11.608;2023-06-22T14:33:12;32.90;1.00
827;DHT22;395;48.132;11.608;2023-06-22T14:35:38;33.10;1.00
827;DHT22;395;48.132;11.608;2023-06-22T14:38:03;33.10;1.00
827;DHT22;395;48.132;11.608;2023-06-22T14:40:29;33.10;1.00
827;DHT22;395;48.132;11.608;2023-06-22T14:42:55;33.10;1.00
827;DHT22;395;48.132;11.608;2023-06-22T14:45:23;33.10;1.00
827;DHT22;395;48.132;11.608;2023-06-22T14:47:49;33.10;1.00
827;DHT22;395;48.132;11.608;2023-06-22T14:50:14;33.10;1.00
827;DHT22;395;48.132;11.608;2023-06-22T14:52:40;33.30;1.00
827;DHT22;395;48.132;11.608;2023-06-22T14:55:06;33.30;1.00
827;DHT22;395;48.132;11.608;2023-06-22T14:57:32;33.30;1.00
827;DHT22;395;48.132;11.608;2023-06-22T14:59:57;33.30;1.00
827;DHT22;395;48.132;11.608;2023-06-22T15:02:23;33.40;1.00
827;DHT22;395;48.132;11.608;2023-06-22T15:04:49;33.50;1.00
827;DHT22;395;48.132;11.608;2023-06-22T15:07:15;33.50;1.00
827;DHT22;395;48.132;11.608;2023-06-22T15:09:40;33.50;1.00
827;DHT22;395;48.132;11.608;2023-06-22T15:12:08;33.50;1.00
827;DHT22;395;48.132;11.608;2023-06-22T15:14:39;33.60;1.00
827;DHT22;395;48.132;11.608;2023-06-22T15:17:06;33.70;1.00
827;DHT22;395;48.132;11.608;2023-06-22T15:19:32;33.80;1.00
827;DHT22;395;48.132;11.608;2023-06-22T15:21:57;33.90;1.00
827;DHT22;395;48.132;11.608;2023-06-22T15:24:23;34.00;1.00
827;DHT22;395;48.132;11.608;2023-06-22T15:26:48;34.00;1.00
827;DHT22;395;48.132;11.608;2023-06-22T15:29:14;34.00;1.00
827;DHT22;395;48.132;11.608;2023-06-22T15:31:39;33.90;1.00
827;DHT22;395;48.132;11.608;2023-06-22T15:34:06;33.80;1.00
827;DHT22;395;48.132;11.608;2023-06-22T15:36:31;33.80;1.00
827;DHT22;395;48.132;11.608;2023-06-22T15:38:59;33.80;1.00
827;DHT22;395;48.132;11.608;2023-06-22T15:41:24;33.70;1.00
827;DHT22;395;48.132;11.608;2023-06-22T15:43:50;33.80;1.00
827;DHT22;395;48.132;11.608;2023-06-22T15:46:16;34.00;1.00
827;DHT22;395;48.132;11.608;2023-06-22T15:48:43;34.20;1.00
827;DHT22;395;48.132;11.608;2023-06-22T15:51:09;34.10;1.00
827;DHT22;395;48.132;11.608;2023-06-22T15:53:34;34.20;1.00
827;DHT22;395;48.132;11.608;2023-06-22T15:56:00;34.30;1.00
827;DHT22;395;48.132;11.608;2023-06-22T15:58:25;34.40;1.00
827;DHT22;395;48.132;11.608;2023-06-22T16:00:51;34.40;1.00
827;DHT22;395;48.132;11.608;2023-06-22T16:03:17;34.40;1.00
827;DHT22;395;48.132;11.608;2023-06-22T16:05:42;34.40;1.00
827;DHT22;395;48.132;11.608;2023-06-22T16:08:11;34.40;1.00
827;DHT22;395;48.132;11.608;2023-06-22T16:10:41;34.40;1.00
827;DHT22;395;48.132;11.608;2023-06-22T16:13:07;34.40;1.00
827;DHT22;395;48.132;11.608;2023-06-22T16:15:32;34.50;1.00
827;DHT22;395;48.132;11.608;2023-06-22T16:17:58;34.50;1.00
827;DHT22;395;48.132;11.608;2023-06-22T16:20:24;34.50;1.00
827;DHT22;395;48.132;11.608;2023-06-22T16:22:49;34.50;1.00
827;DHT22;395;48.132;11.608;2023-06-22T16:25:15;34.60;1.00
827;DHT22;395;48.132;11.608;2023-06-22T16:27:41;34.60;1.00
827;DHT22;395;48.132;11.608;2023-06-22T16:30:07;34.50;1.00
827;DHT22;395;48.132;11.608;2023-06-22T16:32:33;34.60;1.00
827;DHT22;395;48.132;11.608;2023-06-22T16:34:58;34.70;1.00